createdAt,value
2022-10-14T00:01:14.253Z,99.90
2022-10-14T00:03:43.072Z,99.90
2022-10-14T00:06:13.867Z,99.90
2022-10-14T00:08:44.849Z,99.90
2022-10-14T00:11:16.135Z,99.90
2022-10-14T00:13:44.391Z,99.90
2022-10-14T00:16:18.806Z,99.90
2022-10-14T00:18:47.077Z,99.90
2022-10-14T00:21:15.774Z,99.90
2022-10-14T00:23:44.177Z,99.90
2022-10-14T00:26:19.097Z,99.90
2022-10-14T00:28:47.516Z,99.90
2022-10-14T00:31:16.555Z,99.90
2022-10-14T00:33:45.285Z,99.90
2022-10-14T00:36:15.228Z,99.90
2022-10-14T00:38:45.295Z,99.90
2022-10-14T00:41:14.335Z,99.90
2022-10-14T00:44:05.106Z,99.90
2022-10-14T00:46:35.240Z,99.90
2022-10-14T00:49:07.653Z,99.90
2022-10-14T00:51:37.729Z,99.90
2022-10-14T00:54:06.785Z,99.90
2022-10-14T00:56:36.178Z,99.90
2022-10-14T00:59:06.759Z,99.90
2022-10-14T01:01:35.598Z,99.90
2022-10-14T01:04:03.970Z,99.90
2022-10-14T01:06:44.019Z,99.90
2022-10-14T01:09:21.707Z,99.90
2022-10-14T01:12:27.045Z,99.90
2022-10-14T01:14:59.976Z,99.90
2022-10-14T01:17:36.884Z,99.90
2022-10-14T01:20:30.011Z,99.90
2022-10-14T01:23:14.283Z,99.90
2022-10-14T01:25:56.848Z,99.90
2022-10-14T01:28:36.683Z,99.90
2022-10-14T01:31:10.425Z,99.90
2022-10-14T01:33:41.376Z,99.90
2022-10-14T01:36:14.560Z,99.90
2022-10-14T01:38:46.341Z,99.90
2022-10-14T01:41:19.416Z,99.90
2022-10-14T01:43:50.746Z,99.90
2022-10-14T01:46:23.464Z,99.90
2022-10-14T01:48:56.367Z,99.90
2022-10-14T01:51:30.452Z,99.90
2022-10-14T01:54:03.883Z,99.90
2022-10-14T01:56:38.131Z,99.90
2022-10-14T01:59:11.390Z,99.90
2022-10-14T02:01:41.238Z,99.90
2022-10-14T02:04:16.773Z,99.90
2022-10-14T02:06:50.021Z,99.90
2022-10-14T02:09:24.551Z,99.90
2022-10-14T02:12:06.683Z,99.90
2022-10-14T02:14:40.602Z,99.90
2022-10-14T02:17:16.344Z,99.90
2022-10-14T02:19:49.917Z,99.90
2022-10-14T02:22:28.409Z,99.90
2022-10-14T02:25:00.730Z,99.90
2022-10-14T02:27:30.569Z,99.90
2022-10-14T02:30:00.729Z,99.90
2022-10-14T02:32:31.548Z,99.90
2022-10-14T02:35:00.749Z,99.90
2022-10-14T02:37:30.764Z,99.90
2022-10-14T02:40:03.828Z,99.90
2022-10-14T02:42:32.076Z,99.90
2022-10-14T02:45:02.156Z,99.90
2022-10-14T02:47:32.090Z,99.90
2022-10-14T02:50:00.357Z,99.90
2022-10-14T02:52:28.553Z,99.90
2022-10-14T02:54:56.719Z,99.90
2022-10-14T02:57:24.892Z,99.90
2022-10-14T02:59:53.046Z,99.90
2022-10-14T03:02:21.440Z,99.90
2022-10-14T03:04:51.166Z,99.90
2022-10-14T03:07:19.316Z,99.90
2022-10-14T03:09:47.539Z,99.90
2022-10-14T03:12:15.728Z,99.90
2022-10-14T03:14:44.162Z,99.90
2022-10-14T03:17:12.695Z,99.90
2022-10-14T03:19:40.863Z,99.90
2022-10-14T03:22:10.359Z,99.90
2022-10-14T03:24:38.513Z,99.90
2022-10-14T03:27:06.686Z,99.90
2022-10-14T03:29:34.819Z,99.90
2022-10-14T03:32:03.027Z,99.90
2022-10-14T03:34:31.199Z,99.90
2022-10-14T03:36:59.330Z,99.90
2022-10-14T03:39:28.854Z,99.90
2022-10-14T03:41:57.017Z,99.90
2022-10-14T03:44:25.194Z,99.90
2022-10-14T03:46:53.368Z,99.90
2022-10-14T03:49:21.515Z,99.90
2022-10-14T03:51:49.770Z,99.90
2022-10-14T03:54:18.148Z,99.90
2022-10-14T03:56:47.730Z,99.90
2022-10-14T03:59:15.872Z,99.90
2022-10-14T04:01:44.101Z,99.90
2022-10-14T04:04:12.282Z,99.90
2022-10-14T04:06:40.484Z,99.90
2022-10-14T04:09:08.710Z,99.90
2022-10-14T04:11:36.858Z,99.90
2022-10-14T04:14:06.428Z,99.90
2022-10-14T04:16:34.653Z,99.90
2022-10-14T04:19:03.088Z,99.90
2022-10-14T04:21:31.254Z,99.90
2022-10-14T04:23:59.526Z,99.90
2022-10-14T04:26:27.733Z,99.90
2022-10-14T04:28:56.405Z,99.90
2022-10-14T04:31:26.062Z,99.90
2022-10-14T04:33:54.268Z,99.90
2022-10-14T04:36:22.446Z,99.90
2022-10-14T04:38:50.628Z,99.90
2022-10-14T04:41:18.808Z,99.90
2022-10-14T04:43:46.959Z,99.90
2022-10-14T04:46:15.140Z,99.90
2022-10-14T04:48:44.654Z,99.90
2022-10-14T04:51:12.894Z,99.90
2022-10-14T04:53:41.229Z,99.90
2022-10-14T04:56:09.535Z,99.90
2022-10-14T04:58:37.704Z,99.90
2022-10-14T05:01:05.926Z,99.90
2022-10-14T05:03:34.096Z,99.90
2022-10-14T05:06:03.658Z,99.90
2022-10-14T05:08:31.939Z,99.90
2022-10-14T05:11:00.187Z,99.90
2022-10-14T05:13:28.448Z,99.90
2022-10-14T05:15:56.670Z,99.90
2022-10-14T05:18:24.818Z,99.90
2022-10-14T05:20:52.981Z,99.90
2022-10-14T05:23:22.682Z,99.90
2022-10-14T05:25:51.799Z,99.90
2022-10-14T05:28:20.384Z,99.90
2022-10-14T05:30:48.813Z,99.90
2022-10-14T05:33:17.155Z,99.90
2022-10-14T05:36:00.040Z,99.90
2022-10-14T05:38:32.028Z,99.90
2022-10-14T05:41:00.175Z,99.90
2022-10-14T05:43:32.486Z,99.90
2022-10-14T05:46:01.242Z,99.90
2022-10-14T05:48:29.434Z,99.90
2022-10-14T05:51:01.426Z,99.90
2022-10-14T05:53:32.616Z,99.90
2022-10-14T05:56:04.981Z,99.90
2022-10-14T05:58:33.790Z,99.90
2022-10-14T06:01:02.475Z,99.90
2022-10-14T06:03:30.789Z,99.90
2022-10-14T06:05:59.076Z,99.90
2022-10-14T06:08:27.833Z,99.90
2022-10-14T06:10:57.416Z,99.90
2022-10-14T06:13:26.013Z,99.90
2022-10-14T06:15:54.126Z,99.90
2022-10-14T06:18:22.265Z,99.90
2022-10-14T06:20:54.334Z,99.90
2022-10-14T06:23:22.753Z,99.90
2022-10-14T06:25:50.960Z,99.90
2022-10-14T06:28:20.929Z,99.90
2022-10-14T06:30:51.672Z,99.90
2022-10-14T06:33:20.566Z,99.90
2022-10-14T06:35:49.183Z,99.90
2022-10-14T06:38:17.380Z,99.90
2022-10-14T06:40:45.550Z,99.90
2022-10-14T06:43:13.737Z,99.90
2022-10-14T06:45:43.308Z,99.90
2022-10-14T06:48:11.573Z,99.90
2022-10-14T06:50:40.034Z,99.90
2022-10-14T06:53:08.754Z,99.90
2022-10-14T06:55:37.125Z,99.90
2022-10-14T06:58:05.480Z,99.90
2022-10-14T07:00:33.759Z,99.90
2022-10-14T07:03:03.991Z,99.90
2022-10-14T07:05:32.302Z,99.90
2022-10-14T07:10:29.541Z,99.90
2022-10-14T07:12:57.702Z,99.90
2022-10-14T07:15:25.888Z,99.90
2022-10-14T07:17:54.060Z,99.90
2022-10-14T07:20:23.670Z,99.90
2022-10-14T07:22:55.648Z,99.90
2022-10-14T07:25:23.893Z,99.90
2022-10-14T07:27:54.112Z,99.90
2022-10-14T07:30:22.658Z,99.90
2022-10-14T07:32:50.880Z,99.90
2022-10-14T07:35:20.246Z,99.90
2022-10-14T07:37:50.510Z,99.90
2022-10-14T07:40:18.766Z,99.90
2022-10-14T07:42:47.240Z,99.90
2022-10-14T07:45:17.715Z,99.90
2022-10-14T07:47:48.034Z,99.90
2022-10-14T07:50:16.235Z,99.90
2022-10-14T07:52:44.834Z,99.90
2022-10-14T07:55:14.462Z,99.90
2022-10-14T07:57:42.654Z,99.90
2022-10-14T08:00:11.508Z,99.90
2022-10-14T08:02:39.718Z,99.90
2022-10-14T08:07:56.375Z,99.90
2022-10-14T08:10:25.962Z,99.90
2022-10-14T08:12:54.155Z,99.90
2022-10-14T08:15:22.310Z,99.90
2022-10-14T08:17:50.621Z,99.90
2022-10-14T08:20:18.934Z,99.90
2022-10-14T08:22:47.246Z,99.90
2022-10-14T08:25:15.582Z,99.90
2022-10-14T08:27:45.124Z,99.90
2022-10-14T08:30:13.470Z,99.90
2022-10-14T08:32:41.646Z,99.90
2022-10-14T08:35:12.175Z,99.90
2022-10-14T08:37:40.420Z,99.90
2022-10-14T08:40:10.062Z,99.90
2022-10-14T08:42:44.908Z,99.90
2022-10-14T08:45:20.274Z,99.90
2022-10-14T08:47:48.828Z,99.90
2022-10-14T08:50:26.753Z,99.90
2022-10-14T08:53:00.625Z,99.90
2022-10-14T08:55:34.851Z,99.90
2022-10-14T08:58:11.225Z,99.90
2022-10-14T09:00:43.083Z,99.90
2022-10-14T09:03:19.447Z,99.90
2022-10-14T09:05:53.249Z,99.90
2022-10-14T09:08:28.352Z,99.90
2022-10-14T09:10:56.641Z,99.90
2022-10-14T09:13:32.591Z,99.90
2022-10-14T09:16:07.542Z,99.70
2022-10-14T09:18:41.665Z,99.90
2022-10-14T09:21:47.758Z,99.50
2022-10-14T09:24:18.119Z,99.30
2022-10-14T09:26:48.790Z,99.30
2022-10-14T09:29:25.274Z,99.70
2022-10-14T09:31:57.625Z,99.50
2022-10-14T09:34:32.348Z,99.20
2022-10-14T09:37:07.769Z,99.10
2022-10-14T09:39:40.298Z,98.90
2022-10-14T09:42:19.234Z,98.60
2022-10-14T09:45:10.167Z,98.70
2022-10-14T09:47:50.426Z,98.50
2022-10-14T09:50:25.623Z,98.60
2022-10-14T09:52:58.886Z,98.50
2022-10-14T09:55:27.348Z,98.30
2022-10-14T09:58:05.290Z,98.30
2022-10-14T10:00:37.639Z,98.30
2022-10-14T10:03:11.515Z,98.20
2022-10-14T10:05:41.786Z,98.20
2022-10-14T10:08:18.723Z,98.30
2022-10-14T10:11:03.704Z,98.30
2022-10-14T10:13:40.145Z,98.10
2022-10-14T10:16:18.294Z,98.30
2022-10-14T10:18:47.967Z,98.20
2022-10-14T10:21:20.115Z,98.30
2022-10-14T10:23:58.078Z,98.00
2022-10-14T10:26:29.534Z,98.10
2022-10-14T10:28:59.966Z,97.90
2022-10-14T10:31:53.364Z,97.90
2022-10-14T10:34:54.820Z,97.60
2022-10-14T10:37:29.263Z,97.60
2022-10-14T10:40:20.410Z,97.50
2022-10-14T10:43:00.892Z,97.30
2022-10-14T10:45:40.332Z,97.00
2022-10-14T10:48:18.484Z,96.90
2022-10-14T10:50:57.703Z,96.70
2022-10-14T10:53:42.607Z,96.60
2022-10-14T10:56:24.149Z,96.40
2022-10-14T10:59:07.278Z,96.40
2022-10-14T11:01:44.735Z,96.40
2022-10-14T11:04:31.384Z,96.30
2022-10-14T11:07:29.947Z,96.50
2022-10-14T11:10:24.590Z,96.50
2022-10-14T11:13:00.999Z,96.50
2022-10-14T11:15:43.280Z,96.50
2022-10-14T11:18:15.096Z,96.60
2022-10-14T11:21:04.468Z,96.10
2022-10-14T11:23:41.980Z,96.10
2022-10-14T11:26:30.739Z,96.10
2022-10-14T11:29:06.254Z,96.20
2022-10-14T11:31:41.765Z,96.30
2022-10-14T11:34:29.809Z,96.30
2022-10-14T11:37:08.421Z,96.20
2022-10-14T11:39:46.037Z,96.30
2022-10-14T11:42:27.909Z,96.30
2022-10-14T11:45:08.361Z,96.10
2022-10-14T11:47:40.534Z,96.20
2022-10-14T11:50:16.534Z,96.20
2022-10-14T11:52:51.262Z,96.40
2022-10-14T11:55:24.587Z,96.40
2022-10-14T11:57:56.728Z,96.20
2022-10-14T12:00:28.178Z,96.20
2022-10-14T12:03:04.010Z,96.30
2022-10-14T12:05:40.041Z,96.30
2022-10-14T12:08:17.117Z,96.10
2022-10-14T12:10:50.892Z,96.30
2022-10-14T12:13:33.414Z,96.40
2022-10-14T12:16:05.522Z,96.30
2022-10-14T12:21:18.359Z,96.10
2022-10-14T12:23:49.957Z,96.20
2022-10-14T12:26:44.099Z,96.20
2022-10-14T12:29:15.818Z,96.20
2022-10-14T12:31:50.515Z,96.10
2022-10-14T12:34:35.880Z,96.20
2022-10-14T12:37:42.938Z,96.20
2022-10-14T12:40:29.104Z,95.80
2022-10-14T12:43:16.400Z,95.90
2022-10-14T12:46:03.324Z,96.40
2022-10-14T12:48:34.688Z,96.20
2022-10-14T12:51:13.332Z,96.20
2022-10-14T12:53:51.184Z,96.20
2022-10-14T12:56:31.758Z,96.20
2022-10-14T12:59:03.244Z,96.20
2022-10-14T13:01:35.461Z,96.20
2022-10-14T13:04:08.250Z,96.30
2022-10-14T13:06:39.497Z,96.20
2022-10-14T13:09:39.960Z,96.30
2022-10-14T13:12:46.488Z,96.10
2022-10-14T13:15:36.467Z,96.30
2022-10-14T13:18:50.702Z,96.20
2022-10-14T13:21:32.271Z,96.10
2022-10-14T13:24:02.826Z,96.20
2022-10-14T13:26:39.320Z,96.10
2022-10-14T13:29:17.994Z,96.30
2022-10-14T13:31:56.726Z,96.20
2022-10-14T13:34:37.509Z,96.20
2022-10-14T13:37:30.875Z,96.20
2022-10-14T13:40:06.425Z,96.10
2022-10-14T13:42:37.816Z,96.20
2022-10-14T13:45:10.722Z,96.40
2022-10-14T13:47:43.435Z,96.20
2022-10-14T13:50:13.828Z,96.10
2022-10-14T13:52:42.797Z,96.20
2022-10-14T13:55:20.101Z,95.90
2022-10-14T13:58:13.420Z,96.00
2022-10-14T14:00:46.315Z,96.10
2022-10-14T14:03:25.417Z,96.10
2022-10-14T14:05:54.529Z,96.10
2022-10-14T14:08:39.123Z,96.00
2022-10-14T14:11:17.975Z,96.20
2022-10-14T14:14:00.427Z,96.20
2022-10-14T14:16:32.985Z,96.20
2022-10-14T14:19:08.901Z,96.20
2022-10-14T14:21:38.566Z,96.30
2022-10-14T14:24:17.698Z,96.10
2022-10-14T14:26:46.364Z,95.70
2022-10-14T14:29:18.570Z,95.70
2022-10-14T14:32:05.573Z,96.00
2022-10-14T14:34:37.294Z,95.90
2022-10-14T14:37:25.168Z,96.00
2022-10-14T14:39:58.968Z,95.80
2022-10-14T14:42:30.121Z,96.00
2022-10-14T14:45:02.403Z,96.10
2022-10-14T14:47:31.592Z,96.20
2022-10-14T14:50:29.971Z,96.20
2022-10-14T14:52:52.555Z,96.30
2022-10-14T14:55:44.050Z,96.30
2022-10-14T14:58:22.970Z,96.40
2022-10-14T15:00:54.558Z,96.50
2022-10-14T15:03:24.467Z,96.50
2022-10-14T15:05:58.657Z,96.80
2022-10-14T15:08:29.062Z,96.80
2022-10-14T15:10:58.984Z,96.90
2022-10-14T15:13:33.628Z,96.90
2022-10-14T15:16:01.798Z,96.90
2022-10-14T15:18:30.608Z,97.10
2022-10-14T15:21:16.947Z,97.20
2022-10-14T15:23:58.531Z,97.30
2022-10-14T15:26:31.762Z,97.40
2022-10-14T15:29:17.496Z,97.40
2022-10-14T15:31:47.847Z,97.50
2022-10-14T15:34:22.275Z,97.50
2022-10-14T15:36:54.213Z,97.50
2022-10-14T15:39:23.335Z,97.60
2022-10-14T15:41:52.012Z,97.80
2022-10-14T15:44:20.297Z,97.90
2022-10-14T15:47:06.273Z,98.00
2022-10-14T15:49:37.826Z,98.00
2022-10-14T15:52:07.589Z,98.20
2022-10-14T15:54:35.894Z,98.10
2022-10-14T15:57:05.733Z,98.10
2022-10-14T15:59:33.966Z,98.30
2022-10-14T16:02:02.174Z,98.40
2022-10-14T16:04:30.532Z,98.30
2022-10-14T16:06:58.738Z,98.30
2022-10-14T16:09:29.837Z,98.40
2022-10-14T16:12:00.826Z,98.50
2022-10-14T16:14:29.318Z,98.40
2022-10-14T16:16:57.636Z,98.60
2022-10-14T16:19:25.801Z,98.60
2022-10-14T16:21:53.971Z,98.70
2022-10-14T16:24:25.374Z,98.70
2022-10-14T16:26:55.373Z,99.10
2022-10-14T16:29:23.551Z,99.00
2022-10-14T16:31:52.458Z,99.00
2022-10-14T16:34:21.616Z,99.20
2022-10-14T16:36:50.640Z,99.30
2022-10-14T16:39:20.053Z,99.40
2022-10-14T16:41:48.478Z,99.50
2022-10-14T16:44:27.525Z,99.40
2022-10-14T16:47:14.400Z,99.50
2022-10-14T16:49:44.207Z,99.90
2022-10-14T16:52:12.578Z,99.70
2022-10-14T16:54:41.086Z,99.80
2022-10-14T16:57:09.915Z,99.90
2022-10-14T16:59:39.798Z,99.90
2022-10-14T17:02:11.114Z,99.90
2022-10-14T17:04:40.899Z,99.60
2022-10-14T17:07:09.149Z,99.60
2022-10-14T17:09:39.561Z,99.80
2022-10-14T17:12:12.958Z,99.90
2022-10-14T17:14:44.077Z,99.90
2022-10-14T17:17:13.132Z,99.90
2022-10-14T17:19:41.492Z,99.90
2022-10-14T17:22:09.928Z,99.90
2022-10-14T17:24:38.097Z,99.90
2022-10-14T17:27:06.233Z,99.90
2022-10-14T17:29:34.387Z,99.90
2022-10-14T17:32:03.961Z,99.90
2022-10-14T17:34:33.060Z,99.90
2022-10-14T17:37:01.276Z,99.90
2022-10-14T17:39:29.941Z,99.90
2022-10-14T17:41:58.581Z,99.90
2022-10-14T17:44:28.754Z,99.90
2022-10-14T17:46:57.205Z,99.90
2022-10-14T17:49:26.739Z,99.90
2022-10-14T17:51:54.968Z,99.90
2022-10-14T17:54:23.348Z,99.90
2022-10-14T17:56:51.573Z,99.60
2022-10-14T17:59:19.911Z,99.50
2022-10-14T18:02:04.125Z,99.40
2022-10-14T18:04:34.174Z,99.40
2022-10-14T18:07:02.434Z,99.40
2022-10-14T18:09:30.612Z,99.30
2022-10-14T18:12:14.279Z,99.30
2022-10-14T18:14:42.888Z,99.40
2022-10-14T18:17:12.482Z,99.30
2022-10-14T18:19:44.134Z,99.30
2022-10-14T18:22:14.638Z,99.30
2022-10-14T18:24:43.902Z,99.30
2022-10-14T18:27:12.425Z,99.20
2022-10-14T18:29:40.617Z,99.20
2022-10-14T18:32:08.758Z,99.10
2022-10-14T18:34:36.986Z,99.10
2022-10-14T18:37:07.048Z,99.30
2022-10-14T18:39:35.217Z,99.10
2022-10-14T18:42:03.409Z,99.20
2022-10-14T18:44:31.626Z,99.10
2022-10-14T18:46:59.918Z,99.10
2022-10-14T18:49:28.066Z,99.10
2022-10-14T18:51:56.236Z,99.00
2022-10-14T18:54:25.942Z,99.00
2022-10-14T18:56:54.882Z,99.40
2022-10-14T18:59:24.427Z,99.20
2022-10-14T19:01:53.426Z,99.20
2022-10-14T19:04:23.796Z,99.00
2022-10-14T19:06:52.025Z,99.10
2022-10-14T19:09:24.564Z,99.10
2022-10-14T19:11:54.322Z,99.20
2022-10-14T19:14:22.926Z,99.20
2022-10-14T19:16:51.389Z,99.20
2022-10-14T19:19:21.160Z,99.20
2022-10-14T19:21:54.012Z,99.20
2022-10-14T19:24:22.243Z,99.20
2022-10-14T19:26:50.473Z,99.40
2022-10-14T19:29:20.021Z,99.30
2022-10-14T19:31:50.885Z,99.50
2022-10-14T19:34:19.052Z,99.50
2022-10-14T19:36:47.245Z,99.50
2022-10-14T19:39:18.158Z,99.50
2022-10-14T19:41:47.431Z,99.60
2022-10-14T19:44:17.229Z,99.70
2022-10-14T19:46:46.985Z,99.90
2022-10-14T19:49:17.930Z,99.90
2022-10-14T19:51:46.287Z,99.90
2022-10-14T19:54:15.072Z,99.90
2022-10-14T19:56:43.455Z,99.90
2022-10-14T19:59:13.511Z,99.90
2022-10-14T20:01:41.965Z,99.90
2022-10-14T20:04:11.709Z,99.90
2022-10-14T20:06:40.387Z,99.90
2022-10-14T20:09:09.058Z,99.90
2022-10-14T20:11:37.238Z,99.90
2022-10-14T20:14:05.451Z,99.90
2022-10-14T20:16:33.751Z,99.90
2022-10-14T20:19:01.878Z,99.90
2022-10-14T20:21:31.775Z,99.90
2022-10-14T20:24:00.690Z,99.90
2022-10-14T20:26:29.272Z,99.90
2022-10-14T20:28:57.545Z,99.90
2022-10-14T20:31:26.461Z,99.90
2022-10-14T20:33:56.972Z,99.90
2022-10-14T20:36:25.262Z,99.90
2022-10-14T20:38:54.842Z,99.90
2022-10-14T20:41:24.820Z,99.90
2022-10-14T20:43:54.542Z,99.90
2022-10-14T20:46:24.663Z,99.90
2022-10-14T20:48:55.890Z,99.90
2022-10-14T20:51:24.473Z,99.90
2022-10-14T20:54:01.826Z,99.90
2022-10-14T20:56:34.109Z,99.90
2022-10-14T20:59:04.925Z,99.90
2022-10-14T21:01:33.878Z,99.90
2022-10-14T21:04:03.203Z,99.90
2022-10-14T21:06:32.377Z,99.90
2022-10-14T21:09:02.283Z,99.90
2022-10-14T21:11:30.447Z,99.90
2022-10-14T21:14:00.364Z,99.90
2022-10-14T21:16:30.677Z,99.90
2022-10-14T21:19:00.400Z,99.90
2022-10-14T21:21:31.341Z,99.90
2022-10-14T21:24:01.700Z,99.90
2022-10-14T21:26:31.235Z,99.90
2022-10-14T21:29:00.977Z,97.30
2022-10-14T21:31:29.273Z,96.30
2022-10-14T21:34:02.701Z,96.30
2022-10-14T21:36:33.728Z,96.30
2022-10-14T21:39:07.449Z,96.30
2022-10-14T21:41:35.926Z,96.30
2022-10-14T21:44:04.644Z,96.40
2022-10-14T21:46:33.458Z,96.30
2022-10-14T21:49:01.641Z,96.40
2022-10-14T21:51:31.417Z,96.40
2022-10-14T21:54:00.258Z,96.40
2022-10-14T21:56:30.071Z,96.40
2022-10-14T21:58:58.420Z,96.40
2022-10-14T22:01:29.083Z,96.40
2022-10-14T22:03:59.221Z,96.40
2022-10-14T22:06:28.637Z,96.60
2022-10-14T22:08:58.502Z,96.60
2022-10-14T22:11:30.326Z,96.60
2022-10-14T22:14:00.236Z,96.50
2022-10-14T22:16:29.975Z,96.50
2022-10-14T22:19:00.225Z,96.50
2022-10-14T22:21:30.250Z,96.50
2022-10-14T22:23:59.212Z,96.40
2022-10-14T22:26:30.017Z,96.40
2022-10-14T22:29:00.139Z,96.60
2022-10-14T22:31:28.922Z,96.60
2022-10-14T22:33:57.170Z,96.60
2022-10-14T22:36:28.200Z,96.60
2022-10-14T22:38:57.708Z,96.60
2022-10-14T22:41:30.992Z,96.70
2022-10-14T22:44:05.071Z,96.70
2022-10-14T22:46:36.040Z,96.60
2022-10-14T22:49:04.912Z,96.70
2022-10-14T22:51:34.743Z,96.80
2022-10-14T22:54:03.360Z,96.80
2022-10-14T22:56:32.535Z,96.80
2022-10-14T22:59:02.397Z,96.80
2022-10-14T23:01:32.253Z,96.90
2022-10-14T23:04:01.167Z,96.90
2022-10-14T23:06:30.553Z,96.90
2022-10-14T23:09:00.410Z,96.90
2022-10-14T23:11:30.160Z,96.90
2022-10-14T23:14:01.432Z,97.10
2022-10-14T23:16:34.632Z,97.10
2022-10-14T23:19:03.194Z,97.20
2022-10-14T23:21:32.900Z,97.10
2022-10-14T23:24:03.078Z,97.10
2022-10-14T23:26:34.509Z,97.20
2022-10-14T23:29:06.316Z,97.30
2022-10-14T23:31:37.539Z,97.20
2022-10-14T23:34:08.358Z,97.20
2022-10-14T23:36:37.277Z,97.20
2022-10-14T23:39:06.124Z,97.30
2022-10-14T23:41:34.610Z,97.30
2022-10-14T23:44:02.984Z,97.30
2022-10-14T23:46:31.246Z,97.40
2022-10-14T23:49:07.975Z,97.40
2022-10-14T23:51:49.135Z,97.40
2022-10-14T23:54:17.565Z,97.40
2022-10-14T23:56:46.095Z,97.40
2022-10-14T23:59:14.449Z,97.50
